createdAt,value
2018-04-25T00:00:22.343Z,66.60
2018-04-25T00:00:54.535Z,66.90
2018-04-25T00:01:25.972Z,66.90
2018-04-25T00:01:57.473Z,67.10
2018-04-25T00:02:28.949Z,67.20
2018-04-25T00:03:01.153Z,67.60
2018-04-25T00:03:32.612Z,67.60
2018-04-25T00:04:05.545Z,67.70
2018-04-25T00:04:37.928Z,68.20
2018-04-25T00:05:09.390Z,67.80
2018-04-25T00:05:40.844Z,67.80
2018-04-25T00:06:12.295Z,67.80
2018-04-25T00:06:45.222Z,67.80
2018-04-25T00:07:16.720Z,67.80
2018-04-25T00:07:48.195Z,67.80
2018-04-25T00:08:19.635Z,67.90
2018-04-25T00:08:51.134Z,68.00
2018-04-25T00:09:22.631Z,68.20
2018-04-25T00:09:54.103Z,68.30
2018-04-25T00:10:25.566Z,68.10
2018-04-25T00:10:57.030Z,68.10
2018-04-25T00:11:28.467Z,68.10
2018-04-25T00:11:59.915Z,68.00
2018-04-25T00:12:31.376Z,68.00
2018-04-25T00:13:02.860Z,68.00
2018-04-25T00:13:34.324Z,68.10
2018-04-25T00:14:05.807Z,67.90
2018-04-25T00:14:37.303Z,68.00
2018-04-25T00:15:08.752Z,68.10
2018-04-25T00:15:40.239Z,68.10
2018-04-25T00:16:11.728Z,68.20
2018-04-25T00:16:43.963Z,68.30
2018-04-25T00:17:15.410Z,68.40
2018-04-25T00:17:46.895Z,68.40
2018-04-25T00:18:19.140Z,68.30
2018-04-25T00:18:50.580Z,68.30
2018-04-25T00:19:22.028Z,68.30
2018-04-25T00:19:53.455Z,68.40
2018-04-25T00:20:24.898Z,68.40
2018-04-25T00:20:56.327Z,68.30
2018-04-25T00:21:27.783Z,68.40
2018-04-25T00:21:59.223Z,68.50
2018-04-25T00:22:30.671Z,68.50
2018-04-25T00:23:02.140Z,68.60
2018-04-25T00:23:33.572Z,68.50
2018-04-25T00:24:05.015Z,68.60
2018-04-25T00:24:36.485Z,68.70
2018-04-25T00:25:08.661Z,68.80
2018-04-25T00:25:40.095Z,68.70
2018-04-25T00:26:12.293Z,68.80
2018-04-25T00:26:43.730Z,68.70
2018-04-25T00:27:15.157Z,68.90
2018-04-25T00:27:46.588Z,68.90
2018-04-25T00:28:18.051Z,69.10
2018-04-25T00:28:49.458Z,69.20
2018-04-25T00:29:21.627Z,69.40
2018-04-25T00:29:53.092Z,69.50
2018-04-25T00:30:24.529Z,69.70
2018-04-25T00:30:55.965Z,69.80
2018-04-25T00:31:27.403Z,70.10
2018-04-25T00:31:58.844Z,70.00
2018-04-25T00:32:30.382Z,70.20
2018-04-25T00:33:02.563Z,70.40
2018-04-25T00:33:34.060Z,70.40
2018-04-25T00:34:06.967Z,70.50
2018-04-25T00:34:39.138Z,70.50
2018-04-25T00:35:10.588Z,70.50
2018-04-25T00:35:41.994Z,70.50
2018-04-25T00:36:13.451Z,70.60
2018-04-25T00:36:44.919Z,70.80
2018-04-25T00:37:16.341Z,71.00
2018-04-25T00:37:47.788Z,71.00
2018-04-25T00:38:19.943Z,71.10
2018-04-25T00:38:51.428Z,71.00
2018-04-25T00:39:22.870Z,71.20
2018-04-25T00:39:54.301Z,71.00
2018-04-25T00:40:25.767Z,70.90
2018-04-25T00:40:57.254Z,71.00
2018-04-25T00:41:28.724Z,71.00
2018-04-25T00:42:00.220Z,70.80
2018-04-25T00:42:32.431Z,70.80
2018-04-25T00:43:03.906Z,70.80
2018-04-25T00:43:36.135Z,71.50
2018-04-25T00:44:07.660Z,71.00
2018-04-25T00:44:39.156Z,71.20
2018-04-25T00:45:10.616Z,71.30
2018-04-25T00:45:42.866Z,71.40
2018-04-25T00:46:15.066Z,71.50
2018-04-25T00:46:47.177Z,71.50
2018-04-25T00:47:18.648Z,71.70
2018-04-25T00:47:50.118Z,71.70
2018-04-25T00:48:21.605Z,71.70
2018-04-25T00:48:53.094Z,71.70
2018-04-25T00:49:24.602Z,71.90
2018-04-25T00:49:56.063Z,72.00
2018-04-25T00:50:28.277Z,72.30
2018-04-25T00:50:59.751Z,72.20
2018-04-25T00:51:31.240Z,72.10
2018-04-25T00:52:02.707Z,72.10
2018-04-25T00:52:34.170Z,72.00
2018-04-25T00:53:06.401Z,72.20
2018-04-25T00:53:37.879Z,72.20
2018-04-25T00:54:10.083Z,72.40
2018-04-25T00:54:41.624Z,72.40
2018-04-25T00:55:13.078Z,72.50
2018-04-25T00:55:44.531Z,72.40
2018-04-25T00:56:16.053Z,72.50
2018-04-25T00:56:47.546Z,72.50
2018-04-25T00:57:19.017Z,72.60
2018-04-25T00:57:50.479Z,72.40
2018-04-25T00:58:21.947Z,72.70
2018-04-25T00:58:53.451Z,72.60
2018-04-25T00:59:24.926Z,72.60
2018-04-25T00:59:56.437Z,72.70
2018-04-25T01:00:27.895Z,72.80
2018-04-25T01:00:59.354Z,72.90
2018-04-25T01:01:30.832Z,72.80
2018-04-25T01:02:02.287Z,72.70
2018-04-25T01:02:34.510Z,72.80
2018-04-25T01:03:05.999Z,72.80
2018-04-25T01:03:37.475Z,72.80
2018-04-25T01:04:08.953Z,72.80
2018-04-25T01:04:40.439Z,72.80
2018-04-25T01:05:11.946Z,72.80
2018-04-25T01:05:43.415Z,72.80
2018-04-25T01:06:14.909Z,73.40
2018-04-25T01:06:46.395Z,72.70
2018-04-25T01:07:17.892Z,72.80
2018-04-25T01:07:49.389Z,72.80
2018-04-25T01:08:20.868Z,72.90
2018-04-25T01:08:52.361Z,73.00
2018-04-25T01:09:23.831Z,73.10
2018-04-25T01:09:55.343Z,73.30
2018-04-25T01:10:27.575Z,73.20
2018-04-25T01:11:00.557Z,73.30
2018-04-25T01:11:32.043Z,73.20
2018-04-25T01:12:03.590Z,73.20
2018-04-25T01:12:35.793Z,73.40
2018-04-25T01:13:07.259Z,73.40
2018-04-25T01:13:40.201Z,73.10
2018-04-25T01:14:11.667Z,73.00
2018-04-25T01:14:43.168Z,73.00
2018-04-25T01:15:14.668Z,73.00
2018-04-25T01:15:46.942Z,73.50
2018-04-25T01:16:19.162Z,72.80
2018-04-25T01:16:50.656Z,72.90
2018-04-25T01:17:22.898Z,72.90
2018-04-25T01:17:54.373Z,72.90
2018-04-25T01:18:25.850Z,72.90
2018-04-25T01:18:57.326Z,72.90
2018-04-25T01:19:29.547Z,72.80
2018-04-25T01:20:01.033Z,72.80
2018-04-25T01:20:33.260Z,72.80
2018-04-25T01:21:04.766Z,72.80
2018-04-25T01:21:36.243Z,72.80
2018-04-25T01:22:07.721Z,72.90
2018-04-25T01:22:39.208Z,73.60
2018-04-25T01:23:10.758Z,73.10
2018-04-25T01:23:42.256Z,73.10
2018-04-25T01:24:14.466Z,73.20
2018-04-25T01:24:55.908Z,73.30
2018-04-25T01:25:28.154Z,73.10
2018-04-25T01:26:05.326Z,72.90
2018-04-25T01:26:37.564Z,72.90
2018-04-25T01:27:09.039Z,72.90
2018-04-25T01:27:41.265Z,73.00
2018-04-25T01:28:18.851Z,72.90
2018-04-25T01:28:52.111Z,73.00
2018-04-25T01:29:23.582Z,72.90
2018-04-25T01:29:55.068Z,72.90
2018-04-25T01:30:27.296Z,73.10
2018-04-25T01:31:11.204Z,73.20
2018-04-25T01:31:47.676Z,73.20
2018-04-25T01:32:19.168Z,73.30
2018-04-25T01:32:51.396Z,73.30
2018-04-25T01:33:22.880Z,73.20
2018-04-25T01:33:58.047Z,73.10
2018-04-25T01:34:51.296Z,73.10
2018-04-25T01:35:22.771Z,73.10
2018-04-25T01:35:57.218Z,73.10
2018-04-25T01:36:31.512Z,73.60
2018-04-25T01:37:08.843Z,73.10
2018-04-25T01:37:44.028Z,73.10
2018-04-25T01:38:16.243Z,73.20
2018-04-25T01:38:47.715Z,73.30
2018-04-25T01:39:26.204Z,73.20
2018-04-25T01:40:12.570Z,73.20
2018-04-25T01:40:44.043Z,73.30
2018-04-25T01:41:15.515Z,73.40
2018-04-25T01:41:47.763Z,73.60
2018-04-25T01:42:23.022Z,73.60
2018-04-25T01:44:08.196Z,73.40
2018-04-25T01:44:40.406Z,73.40
2018-04-25T01:45:37.706Z,73.40
2018-04-25T01:47:01.947Z,73.30
2018-04-25T01:47:33.426Z,73.40
2018-04-25T01:49:36.718Z,73.50
2018-04-25T01:51:39.553Z,73.80
2018-04-25T01:52:30.792Z,73.90
2018-04-25T01:53:20.592Z,73.90
2018-04-25T01:54:10.522Z,74.00
2018-04-25T01:55:00.342Z,74.00
2018-04-25T01:55:50.315Z,74.00
2018-04-25T01:56:40.967Z,73.70
2018-04-25T01:57:31.604Z,73.70
2018-04-25T01:58:21.495Z,73.50
2018-04-25T01:59:11.303Z,73.50
2018-04-25T02:00:01.316Z,73.50
2018-04-25T02:00:51.098Z,73.50
2018-04-25T02:01:28.397Z,73.40
2018-04-25T02:01:59.498Z,73.40
2018-04-25T02:02:31.366Z,74.10
2018-04-25T02:03:02.532Z,73.50
2018-04-25T02:03:52.060Z,73.50
2018-04-25T02:04:24.119Z,73.70
2018-04-25T02:04:55.518Z,73.70
2018-04-25T02:05:26.917Z,74.30
2018-04-25T02:05:59.123Z,73.70
2018-04-25T02:06:30.569Z,73.70
2018-04-25T02:07:02.035Z,73.80
2018-04-25T02:07:33.438Z,73.80
2018-04-25T02:08:04.867Z,73.70
2018-04-25T02:08:36.287Z,73.80
2018-04-25T02:09:07.706Z,73.70
2018-04-25T02:09:39.875Z,73.50
2018-04-25T02:10:11.317Z,73.50
2018-04-25T02:10:42.736Z,73.50
2018-04-25T02:11:14.184Z,73.50
2018-04-25T02:11:45.604Z,73.30
2018-04-25T02:12:17.003Z,73.20
2018-04-25T02:12:48.423Z,73.20
2018-04-25T02:13:19.901Z,73.20
2018-04-25T02:13:51.328Z,73.20
2018-04-25T02:14:23.484Z,73.40
2018-04-25T02:14:54.964Z,73.30
2018-04-25T02:15:26.372Z,73.30
2018-04-25T02:15:57.795Z,73.40
2018-04-25T02:16:29.248Z,73.60
2018-04-25T02:17:00.691Z,73.70
2018-04-25T02:17:32.121Z,73.60
2018-04-25T02:18:03.579Z,73.60
2018-04-25T02:18:35.108Z,73.60
2018-04-25T02:19:06.524Z,73.60
2018-04-25T02:19:37.939Z,73.50
2018-04-25T02:20:09.357Z,73.50
2018-04-25T02:20:40.783Z,73.70
2018-04-25T02:21:12.924Z,73.50
2018-04-25T02:21:44.331Z,73.40
2018-04-25T02:22:15.734Z,73.40
2018-04-25T02:22:47.892Z,73.90
2018-04-25T02:23:19.299Z,73.30
2018-04-25T02:23:50.732Z,73.20
2018-04-25T02:24:22.134Z,73.30
2018-04-25T02:24:53.557Z,73.40
2018-04-25T02:25:25.717Z,73.60
2018-04-25T02:25:57.892Z,73.70
2018-04-25T02:26:29.308Z,73.70
2018-04-25T02:27:01.480Z,73.80
2018-04-25T02:27:32.902Z,73.80
2018-04-25T02:28:05.072Z,73.80
2018-04-25T02:28:37.241Z,73.80
2018-04-25T02:29:09.428Z,73.90
2018-04-25T02:29:47.899Z,73.90
2018-04-25T02:30:19.351Z,73.80
2018-04-25T02:30:50.795Z,73.70
2018-04-25T02:31:22.227Z,73.90
2018-04-25T02:31:54.382Z,74.60
2018-04-25T02:32:26.551Z,74.20
2018-04-25T02:32:57.973Z,74.30
2018-04-25T02:33:29.386Z,74.30
2018-04-25T02:34:01.584Z,74.40
2018-04-25T02:34:33.068Z,74.30
2018-04-25T02:35:04.475Z,74.20
2018-04-25T02:35:36.641Z,74.40
2018-04-25T02:36:08.129Z,74.40
2018-04-25T02:36:39.552Z,74.40
2018-04-25T02:37:10.972Z,74.60
2018-04-25T02:37:42.420Z,74.50
2018-04-25T02:38:13.834Z,74.50
2018-04-25T02:38:45.992Z,75.00
2018-04-25T02:39:17.402Z,74.50
2018-04-25T02:39:48.854Z,74.50
2018-04-25T02:40:20.267Z,74.50
2018-04-25T02:40:51.684Z,74.50
2018-04-25T02:41:23.096Z,74.30
2018-04-25T02:41:54.501Z,74.30
2018-04-25T02:42:25.931Z,74.30
2018-04-25T02:42:57.356Z,74.40
2018-04-25T02:43:28.776Z,74.50
2018-04-25T02:44:00.936Z,74.70
2018-04-25T02:44:33.078Z,74.90
2018-04-25T02:45:04.520Z,74.90
2018-04-25T02:45:36.696Z,74.70
2018-04-25T02:46:08.124Z,74.70
2018-04-25T02:46:39.554Z,74.70
2018-04-25T02:47:10.973Z,74.80
2018-04-25T02:47:42.395Z,74.80
2018-04-25T02:48:13.826Z,74.80
2018-04-25T02:48:45.276Z,74.80
2018-04-25T02:49:16.694Z,74.80
2018-04-25T02:49:48.838Z,74.60
2018-04-25T02:50:21.052Z,74.50
2018-04-25T02:50:52.463Z,74.50
2018-04-25T02:51:23.884Z,74.40
2018-04-25T02:51:56.049Z,74.30
2018-04-25T02:52:28.221Z,74.30
2018-04-25T02:52:59.640Z,74.30
2018-04-25T02:53:31.787Z,74.60
2018-04-25T02:54:03.958Z,74.20
2018-04-25T02:54:35.355Z,74.30
2018-04-25T02:55:06.796Z,74.20
2018-04-25T02:55:38.257Z,74.20
2018-04-25T02:56:09.670Z,74.20
2018-04-25T02:56:41.075Z,74.20
2018-04-25T02:57:13.236Z,74.60
2018-04-25T02:57:45.407Z,74.70
2018-04-25T02:58:16.832Z,74.70
2018-04-25T02:58:49.054Z,74.90
2018-04-25T02:59:20.436Z,74.80
2018-04-25T02:59:52.592Z,74.70
2018-04-25T03:00:24.743Z,74.90
2018-04-25T03:00:56.189Z,74.90
2018-04-25T03:01:28.357Z,74.80
2018-04-25T03:02:00.516Z,74.60
2018-04-25T03:02:31.963Z,74.60
2018-04-25T03:03:03.413Z,74.50
2018-04-25T03:03:34.833Z,74.40
2018-04-25T03:04:06.230Z,74.30
2018-04-25T03:04:37.630Z,74.30
2018-04-25T03:05:09.788Z,74.50
2018-04-25T03:05:41.939Z,74.50
2018-04-25T03:06:14.130Z,74.30
2018-04-25T03:06:45.550Z,74.30
2018-04-25T03:07:16.967Z,74.30
2018-04-25T03:07:48.388Z,74.30
2018-04-25T03:08:19.791Z,74.40
2018-04-25T03:08:51.216Z,74.20
2018-04-25T03:09:22.660Z,74.20
2018-04-25T03:09:54.100Z,74.10
2018-04-25T03:10:25.532Z,74.00
2018-04-25T03:10:57.695Z,74.00
2018-04-25T03:11:29.875Z,73.90
2018-04-25T03:12:01.303Z,73.90
2018-04-25T03:12:33.462Z,74.00
2018-04-25T03:13:05.615Z,73.90
2018-04-25T03:13:37.763Z,73.90
2018-04-25T03:14:09.167Z,73.90
2018-04-25T03:14:40.589Z,74.00
2018-04-25T03:15:11.995Z,74.00
2018-04-25T03:15:43.436Z,74.10
2018-04-25T03:16:15.632Z,74.10
2018-04-25T03:16:47.101Z,74.00
2018-04-25T03:17:18.528Z,74.00
2018-04-25T03:17:49.939Z,74.10
2018-04-25T03:18:21.359Z,74.30
2018-04-25T03:18:53.521Z,74.20
2018-04-25T03:19:25.667Z,74.30
2018-04-25T03:19:57.075Z,74.30
2018-04-25T03:20:28.486Z,74.30
2018-04-25T03:20:59.904Z,74.40
2018-04-25T03:21:31.343Z,74.20
2018-04-25T03:22:03.537Z,74.30
2018-04-25T03:22:35.000Z,74.30
2018-04-25T03:23:06.412Z,74.30
2018-04-25T03:23:37.855Z,74.30
2018-04-25T03:24:09.276Z,74.40
2018-04-25T03:24:41.437Z,74.40
2018-04-25T03:25:13.589Z,74.30
2018-04-25T03:25:45.739Z,74.40
2018-04-25T03:26:17.152Z,74.40
2018-04-25T03:26:48.580Z,74.50
2018-04-25T03:27:20.017Z,74.50
2018-04-25T03:27:51.440Z,74.60
2018-04-25T03:28:22.843Z,74.70
2018-04-25T03:28:54.261Z,74.60
2018-04-25T03:29:25.745Z,74.60
2018-04-25T03:29:57.179Z,74.50
2018-04-25T03:30:28.592Z,75.20
2018-04-25T03:31:00.035Z,75.10
2018-04-25T03:31:31.461Z,74.70
2018-04-25T03:32:02.949Z,74.60
2018-04-25T03:32:34.412Z,74.60
2018-04-25T03:33:06.559Z,74.50
2018-04-25T03:33:37.991Z,74.50
2018-04-25T03:34:09.413Z,74.50
2018-04-25T03:34:40.824Z,74.30
2018-04-25T03:35:12.249Z,74.30
2018-04-25T03:35:43.738Z,74.40
2018-04-25T03:36:15.108Z,74.50
2018-04-25T03:36:47.291Z,74.60
2018-04-25T03:37:18.720Z,74.60
2018-04-25T03:37:50.912Z,74.70
2018-04-25T03:38:22.341Z,74.70
2018-04-25T03:38:53.751Z,74.80
2018-04-25T03:39:25.899Z,74.70
2018-04-25T03:39:57.307Z,74.70
2018-04-25T03:40:28.711Z,74.70
2018-04-25T03:41:00.193Z,74.60
2018-04-25T03:41:32.313Z,74.70
2018-04-25T03:42:03.739Z,74.70
2018-04-25T03:42:35.901Z,74.80
2018-04-25T03:43:08.093Z,74.80
2018-04-25T03:43:39.504Z,74.80
2018-04-25T03:44:11.659Z,74.80
2018-04-25T03:44:43.810Z,74.80
2018-04-25T03:45:15.261Z,74.80
2018-04-25T03:45:47.454Z,75.00
2018-04-25T03:46:18.878Z,75.00
2018-04-25T03:46:50.304Z,75.00
2018-04-25T03:47:22.456Z,75.00
2018-04-25T03:47:54.628Z,75.00
2018-04-25T03:48:26.824Z,75.10
2018-04-25T03:48:58.242Z,75.00
2018-04-25T03:49:29.664Z,75.10
2018-04-25T03:50:01.092Z,74.90
2018-04-25T03:50:33.268Z,74.50
2018-04-25T03:51:05.414Z,74.50
2018-04-25T03:51:36.837Z,74.40
2018-04-25T03:52:08.265Z,74.50
2018-04-25T03:52:39.703Z,74.50
2018-04-25T03:53:11.115Z,74.40
2018-04-25T03:53:42.569Z,74.40
2018-04-25T03:54:13.988Z,74.30
2018-04-25T03:54:46.148Z,74.30
2018-04-25T03:55:17.632Z,74.30
2018-04-25T03:55:49.043Z,74.30
2018-04-25T03:56:20.451Z,74.30
2018-04-25T03:56:52.604Z,74.20
2018-04-25T03:57:24.023Z,74.20
2018-04-25T03:57:55.438Z,74.10
2018-04-25T03:58:26.842Z,74.20
2018-04-25T03:58:59.039Z,74.10
2018-04-25T03:59:30.469Z,74.20
2018-04-25T04:00:01.897Z,74.10
2018-04-25T04:00:33.352Z,74.10
2018-04-25T04:01:04.791Z,74.80
2018-04-25T04:01:36.232Z,74.30
2018-04-25T04:02:07.657Z,74.40
2018-04-25T04:02:39.088Z,74.10
2018-04-25T04:03:10.531Z,73.90
2018-04-25T04:03:41.935Z,74.30
2018-04-25T04:04:13.367Z,73.80
2018-04-25T04:04:44.780Z,73.60
2018-04-25T04:05:16.201Z,73.60
2018-04-25T04:05:48.364Z,73.60
2018-04-25T04:06:20.535Z,73.60
2018-04-25T04:06:51.960Z,73.50
2018-04-25T04:07:24.143Z,73.70
2018-04-25T04:07:55.581Z,73.70
2018-04-25T04:08:27.001Z,73.60
2018-04-25T04:08:59.147Z,73.70
2018-04-25T04:09:31.335Z,73.90
2018-04-25T04:10:02.799Z,73.70
2018-04-25T04:10:34.229Z,73.80
2018-04-25T04:11:05.656Z,73.90
2018-04-25T04:11:37.839Z,73.90
2018-04-25T04:12:09.284Z,73.80
2018-04-25T04:12:40.737Z,73.80
2018-04-25T04:13:12.160Z,73.60
2018-04-25T04:13:43.592Z,73.50
2018-04-25T04:14:15.065Z,73.50
2018-04-25T04:14:46.517Z,73.40
2018-04-25T04:15:17.940Z,73.30
2018-04-25T04:15:49.368Z,73.20
2018-04-25T04:16:20.783Z,73.20
2018-04-25T04:16:57.964Z,73.20
2018-04-25T04:17:32.177Z,73.30
2018-04-25T04:18:04.345Z,73.20
2018-04-25T04:18:35.759Z,73.10
2018-04-25T04:19:07.171Z,73.00
2018-04-25T04:19:38.592Z,72.90
2018-04-25T04:20:10.072Z,72.90
2018-04-25T04:20:42.985Z,72.90
2018-04-25T04:21:15.149Z,72.90
2018-04-25T04:21:46.590Z,72.90
2018-04-25T04:22:18.022Z,72.80
2018-04-25T04:22:50.188Z,73.00
2018-04-25T04:23:21.629Z,73.00
2018-04-25T04:23:53.792Z,73.00
2018-04-25T04:24:25.241Z,73.00
2018-04-25T04:24:57.418Z,72.80
2018-04-25T04:25:28.868Z,72.80
2018-04-25T04:26:00.277Z,72.70
2018-04-25T04:26:32.451Z,72.60
2018-04-25T04:27:03.900Z,72.60
2018-04-25T04:27:35.307Z,72.50
2018-04-25T04:28:06.761Z,72.50
2018-04-25T04:28:38.179Z,72.60
2018-04-25T04:29:09.605Z,72.60
2018-04-25T04:29:41.027Z,72.60
2018-04-25T04:30:12.452Z,72.40
2018-04-25T04:30:43.900Z,72.40
2018-04-25T04:31:15.321Z,72.40
2018-04-25T04:31:46.757Z,72.60
2018-04-25T04:32:18.911Z,72.40
2018-04-25T04:32:51.067Z,72.30
2018-04-25T04:33:22.511Z,72.30
2018-04-25T04:33:54.663Z,72.30
2018-04-25T04:34:26.827Z,72.30
2018-04-25T04:34:59.028Z,72.30
2018-04-25T04:35:30.455Z,72.20
2018-04-25T04:36:01.909Z,72.20
2018-04-25T04:36:33.343Z,72.20
2018-04-25T04:37:04.764Z,72.10
2018-04-25T04:37:36.919Z,72.10
2018-04-25T04:38:08.349Z,72.10
2018-04-25T04:38:40.530Z,72.10
2018-04-25T04:39:11.944Z,72.10
2018-04-25T04:39:43.357Z,72.20
2018-04-25T04:40:14.774Z,72.10
2018-04-25T04:40:46.191Z,72.00
2018-04-25T04:41:17.635Z,71.90
2018-04-25T04:41:49.043Z,71.90
2018-04-25T04:42:21.237Z,72.00
2018-04-25T04:42:52.692Z,72.00
2018-04-25T04:43:24.091Z,72.10
2018-04-25T04:43:56.993Z,72.10
2018-04-25T04:44:28.428Z,72.10
2018-04-25T04:45:00.600Z,72.10
2018-04-25T04:45:32.003Z,72.10
2018-04-25T04:46:03.471Z,72.00
2018-04-25T04:46:34.965Z,71.80
2018-04-25T04:47:06.383Z,71.70
2018-04-25T04:47:37.798Z,71.70
2018-04-25T04:48:09.951Z,71.80
2018-04-25T04:48:41.368Z,71.80
2018-04-25T04:49:13.535Z,72.20
2018-04-25T04:49:44.946Z,71.80
2018-04-25T04:50:16.381Z,71.70
2018-04-25T04:50:47.791Z,71.60
2018-04-25T04:51:19.961Z,71.50
2018-04-25T04:51:51.426Z,71.50
2018-04-25T04:52:22.840Z,71.50
2018-04-25T04:52:54.265Z,71.40
2018-04-25T04:53:26.428Z,71.30
2018-04-25T04:53:58.580Z,71.30
2018-04-25T04:54:30.744Z,71.60
2018-04-25T04:55:02.936Z,71.60
2018-04-25T04:55:34.393Z,71.50
2018-04-25T04:56:05.822Z,71.50
2018-04-25T04:56:37.241Z,71.50
2018-04-25T04:57:09.451Z,71.50
2018-04-25T04:57:40.881Z,71.50
2018-04-25T04:58:12.315Z,71.30
2018-04-25T04:58:43.727Z,71.10
2018-04-25T04:59:15.879Z,71.00
2018-04-25T04:59:48.100Z,71.20
2018-04-25T05:00:19.458Z,71.20
2018-04-25T05:00:50.881Z,71.20
2018-04-25T05:01:22.292Z,71.00
2018-04-25T05:01:53.721Z,70.90
2018-04-25T05:02:32.034Z,70.90
2018-04-25T05:03:03.534Z,70.70
2018-04-25T05:03:35.711Z,70.50
2018-04-25T05:04:07.881Z,70.50
2018-04-25T05:04:40.050Z,70.40
2018-04-25T05:05:11.456Z,70.40
2018-04-25T05:05:42.877Z,70.30
2018-04-25T05:06:14.295Z,70.40
2018-04-25T05:06:45.716Z,70.30
2018-04-25T05:07:17.141Z,70.20
2018-04-25T05:07:49.315Z,70.60
2018-04-25T05:08:20.764Z,70.50
2018-04-25T05:08:52.189Z,70.40
2018-04-25T05:09:23.632Z,70.30
2018-04-25T05:09:55.782Z,70.30
2018-04-25T05:10:27.943Z,70.20
2018-04-25T05:11:00.099Z,70.10
2018-04-25T05:11:32.261Z,70.20
2018-04-25T05:12:04.433Z,70.20
2018-04-25T05:12:35.846Z,70.20
2018-04-25T05:13:07.379Z,70.20
2018-04-25T05:13:39.471Z,70.30
2018-04-25T05:14:11.622Z,70.40
2018-04-25T05:14:43.780Z,70.50
2018-04-25T05:15:15.949Z,70.30
2018-04-25T05:15:47.417Z,70.30
2018-04-25T05:16:18.833Z,70.30
2018-04-25T05:16:50.268Z,70.40
2018-04-25T05:17:22.416Z,70.30
2018-04-25T05:17:53.819Z,70.30
2018-04-25T05:18:25.258Z,70.40
2018-04-25T05:18:56.667Z,70.20
2018-04-25T05:19:28.075Z,70.10
2018-04-25T05:20:06.302Z,70.10
2018-04-25T05:20:37.740Z,70.20
2018-04-25T05:21:09.905Z,69.90
2018-04-25T05:21:41.329Z,69.90
2018-04-25T05:22:12.735Z,69.80
2018-04-25T05:22:44.156Z,69.80
2018-04-25T05:23:15.559Z,69.60
2018-04-25T05:23:47.040Z,69.60
2018-04-25T05:24:18.484Z,69.60
2018-04-25T05:24:49.897Z,69.50
2018-04-25T05:25:21.321Z,69.60
2018-04-25T05:25:53.480Z,70.00
2018-04-25T05:26:25.635Z,69.30
2018-04-25T05:26:57.053Z,69.30
2018-04-25T05:27:28.463Z,69.40
2018-04-25T05:27:59.884Z,69.60
2018-04-25T05:28:31.316Z,69.40
2018-04-25T05:29:03.511Z,69.30
2018-04-25T05:29:34.928Z,69.20
2018-04-25T05:30:06.351Z,69.00
2018-04-25T05:30:38.513Z,69.80
2018-04-25T05:31:10.680Z,69.10
2018-04-25T05:31:42.846Z,69.20
2018-04-25T05:32:15.107Z,69.20
2018-04-25T05:32:46.456Z,69.20
2018-04-25T05:33:17.863Z,69.10
2018-04-25T05:33:50.032Z,69.10
2018-04-25T05:34:22.231Z,69.00
2018-04-25T05:34:53.652Z,69.00
2018-04-25T05:35:25.076Z,69.00
2018-04-25T05:35:57.244Z,69.10
2018-04-25T05:36:29.399Z,69.20
2018-04-25T05:37:01.554Z,68.90
2018-04-25T05:37:33.713Z,68.80
2018-04-25T05:38:05.883Z,68.80
2018-04-25T05:38:37.303Z,69.30
2018-04-25T05:39:09.476Z,69.20
2018-04-25T05:39:41.655Z,69.20
2018-04-25T05:40:13.063Z,69.20
2018-04-25T05:40:44.485Z,69.20
2018-04-25T05:41:15.920Z,68.40
2018-04-25T05:41:47.332Z,68.70
2018-04-25T05:42:18.760Z,69.00
2018-04-25T05:42:50.166Z,68.50
2018-04-25T05:43:21.575Z,68.50
2018-04-25T05:43:52.994Z,68.50
2018-04-25T05:44:24.438Z,68.40
2018-04-25T05:44:55.937Z,68.40
2018-04-25T05:45:27.388Z,68.60
2018-04-25T05:45:59.588Z,68.80
2018-04-25T05:46:31.027Z,68.70
2018-04-25T05:47:02.447Z,68.60
2018-04-25T05:47:33.899Z,68.60
2018-04-25T05:48:05.367Z,68.70
2018-04-25T05:48:36.786Z,68.60
2018-04-25T05:49:08.212Z,68.50
2018-04-25T05:49:40.372Z,68.60
2018-04-25T05:50:12.576Z,68.50
2018-04-25T05:50:44.002Z,68.40
2018-04-25T05:51:15.428Z,68.20
2018-04-25T05:51:46.887Z,68.50
2018-04-25T05:52:18.323Z,68.50
2018-04-25T05:52:49.731Z,68.40
2018-04-25T05:53:21.901Z,68.60
2018-04-25T05:53:54.065Z,68.70
2018-04-25T05:54:25.484Z,68.70
2018-04-25T05:54:57.654Z,68.50
2018-04-25T05:55:29.831Z,68.50
2018-04-25T05:56:01.307Z,68.40
2018-04-25T05:56:32.736Z,68.40
2018-04-25T05:57:04.156Z,68.40
2018-04-25T05:57:35.595Z,68.40
2018-04-25T05:58:07.747Z,68.00
2018-04-25T05:58:39.906Z,67.90
2018-04-25T05:59:12.076Z,68.00
2018-04-25T05:59:43.505Z,68.00
2018-04-25T06:00:15.671Z,67.90
2018-04-25T06:00:47.133Z,67.90
2018-04-25T06:01:18.551Z,67.90
2018-04-25T06:01:50.725Z,67.70
2018-04-25T06:02:22.135Z,67.60
2018-04-25T06:02:54.297Z,67.60
2018-04-25T06:03:25.712Z,67.60
2018-04-25T06:03:57.123Z,67.60
2018-04-25T06:04:28.531Z,67.60
2018-04-25T06:05:00.683Z,67.50
2018-04-25T06:05:32.895Z,67.20
2018-04-25T06:06:05.056Z,67.10
2018-04-25T06:06:36.484Z,67.10
2018-04-25T06:07:07.971Z,67.20
2018-04-25T06:07:39.343Z,67.20
2018-04-25T06:08:10.783Z,67.10
2018-04-25T06:08:42.955Z,67.10
2018-04-25T06:09:14.412Z,67.10
2018-04-25T06:09:45.831Z,67.20
2018-04-25T06:10:17.253Z,67.20
2018-04-25T06:10:49.417Z,67.40
2018-04-25T06:11:21.650Z,66.90
2018-04-25T06:11:53.212Z,66.80
2018-04-25T06:12:24.652Z,67.30
2018-04-25T06:12:56.063Z,66.80
2018-04-25T06:13:27.485Z,67.00
2018-04-25T06:13:58.911Z,67.10
2018-04-25T06:14:30.347Z,67.10
2018-04-25T06:15:01.763Z,67.00
2018-04-25T06:15:33.207Z,67.00
2018-04-25T06:16:04.673Z,66.90
2018-04-25T06:16:36.859Z,67.20
2018-04-25T06:17:08.275Z,67.10
2018-04-25T06:17:39.689Z,67.90
2018-04-25T06:18:11.098Z,67.50
2018-04-25T06:18:42.522Z,67.50
2018-04-25T06:19:13.945Z,67.40
2018-04-25T06:19:45.351Z,67.30
2018-04-25T06:20:16.806Z,67.60
2018-04-25T06:20:48.199Z,67.40
2018-04-25T06:21:19.631Z,67.50
2018-04-25T06:21:51.086Z,67.20
2018-04-25T06:22:22.499Z,67.20
2018-04-25T06:22:53.924Z,67.40
2018-04-25T06:23:26.088Z,67.40
2018-04-25T06:23:58.253Z,67.40
2018-04-25T06:24:30.399Z,67.30
2018-04-25T06:25:02.584Z,67.30
2018-04-25T06:25:34.033Z,67.30
2018-04-25T06:26:05.459Z,67.60
2018-04-25T06:26:36.927Z,67.80
2018-04-25T06:27:08.360Z,67.90
2018-04-25T06:27:39.777Z,67.90
2018-04-25T06:28:11.959Z,67.20
2018-04-25T06:28:43.360Z,67.20
2018-04-25T06:29:14.784Z,67.40
2018-04-25T06:29:46.199Z,67.60
2018-04-25T06:30:17.619Z,67.50
2018-04-25T06:30:49.035Z,67.40
2018-04-25T06:31:21.196Z,67.30
2018-04-25T06:31:52.635Z,67.30
2018-04-25T06:32:24.116Z,67.20
2018-04-25T06:32:55.546Z,66.30
2018-04-25T06:33:26.951Z,66.30
2018-04-25T06:33:58.373Z,66.60
2018-04-25T06:34:30.568Z,67.20
2018-04-25T06:35:02.795Z,67.60
2018-04-25T06:35:34.215Z,67.60
2018-04-25T06:36:05.663Z,68.10
2018-04-25T06:36:37.158Z,67.90
2018-04-25T06:37:09.343Z,67.70
2018-04-25T06:37:40.805Z,67.70
2018-04-25T06:38:12.218Z,67.60
2018-04-25T06:38:43.657Z,67.90
2018-04-25T06:39:15.100Z,68.20
2018-04-25T06:39:46.524Z,67.30
2018-04-25T06:40:18.676Z,67.60
2018-04-25T06:40:50.842Z,67.90
2018-04-25T06:41:23.009Z,67.90
2018-04-25T06:41:55.168Z,67.80
2018-04-25T06:42:27.323Z,67.50
2018-04-25T06:42:59.507Z,67.70
2018-04-25T06:43:30.941Z,67.70
2018-04-25T06:44:02.373Z,67.60
2018-04-25T06:44:33.804Z,67.80
2018-04-25T06:45:06.039Z,67.80
2018-04-25T06:45:37.428Z,67.70
2018-04-25T06:46:08.857Z,68.20
2018-04-25T06:46:40.313Z,68.20
2018-04-25T06:47:11.723Z,68.10
2018-04-25T06:47:43.144Z,67.60
2018-04-25T06:48:14.608Z,66.80
2018-04-25T06:48:46.057Z,66.90
2018-04-25T06:49:18.225Z,66.40
2018-04-25T06:49:49.663Z,66.40
2018-04-25T06:50:21.827Z,66.70
2018-04-25T06:50:53.243Z,66.70
2018-04-25T06:51:24.665Z,66.90
2018-04-25T06:51:56.092Z,66.80
2018-04-25T06:52:27.511Z,66.50
2018-04-25T06:52:58.932Z,66.50
2018-04-25T06:53:31.120Z,66.50
2018-04-25T06:54:02.565Z,66.50
2018-04-25T06:54:33.985Z,66.50
2018-04-25T06:55:06.152Z,66.50
2018-04-25T06:55:37.573Z,66.50
2018-04-25T06:56:09.759Z,66.50
2018-04-25T06:56:41.321Z,66.50
2018-04-25T06:57:12.679Z,66.50
2018-04-25T06:57:44.128Z,66.30
2018-04-25T06:58:15.560Z,66.40
2018-04-25T06:58:47.053Z,66.50
2018-04-25T06:59:19.199Z,66.50